createdAt,value
2022-09-16T00:01:45.480Z,14.80
2022-09-16T00:04:13.658Z,14.80
2022-09-16T00:06:41.783Z,14.60
2022-09-16T00:09:11.578Z,14.70
2022-09-16T00:11:48.268Z,14.70
2022-09-16T00:14:17.775Z,14.80
2022-09-16T00:16:52.932Z,14.80
2022-09-16T00:19:23.303Z,14.80
2022-09-16T00:21:51.744Z,14.80
2022-09-16T00:24:19.796Z,14.80
2022-09-16T00:26:47.951Z,14.70
2022-09-16T00:29:17.444Z,14.60
2022-09-16T00:31:53.783Z,14.50
2022-09-16T00:34:22.161Z,14.50
2022-09-16T00:36:50.366Z,14.60
2022-09-16T00:39:18.606Z,14.70
2022-09-16T00:41:47.659Z,14.60
2022-09-16T00:45:05.571Z,14.60
2022-09-16T00:47:44.814Z,14.50
2022-09-16T00:50:18.102Z,14.50
2022-09-16T00:52:46.807Z,14.50
2022-09-16T00:55:22.362Z,14.50
2022-09-16T00:57:51.737Z,14.60
2022-09-16T01:00:20.043Z,14.80
2022-09-16T01:02:51.380Z,14.90
2022-09-16T01:05:23.441Z,14.80
2022-09-16T01:07:58.691Z,14.80
2022-09-16T01:10:27.786Z,14.80
2022-09-16T01:13:01.369Z,14.80
2022-09-16T01:15:37.141Z,14.80
2022-09-16T01:18:21.628Z,14.80
2022-09-16T01:21:12.504Z,14.80
2022-09-16T01:24:11.193Z,14.80
2022-09-16T01:26:58.868Z,14.80
2022-09-16T01:30:05.863Z,14.80
2022-09-16T01:32:48.429Z,14.80
2022-09-16T01:35:23.498Z,14.90
2022-09-16T01:38:02.173Z,15.00
2022-09-16T01:40:35.703Z,14.90
2022-09-16T01:43:15.517Z,14.80
2022-09-16T01:45:50.527Z,14.80
2022-09-16T01:48:27.558Z,14.80
2022-09-16T01:51:02.363Z,14.90
2022-09-16T01:53:35.252Z,15.00
2022-09-16T01:56:10.987Z,15.00
2022-09-16T01:58:46.684Z,14.90
2022-09-16T02:01:19.411Z,14.80
2022-09-16T02:04:00.246Z,15.00
2022-09-16T02:06:30.936Z,15.00
2022-09-16T02:09:03.950Z,15.10
2022-09-16T02:11:35.020Z,15.10
2022-09-16T02:14:07.119Z,15.20
2022-09-16T02:16:40.273Z,15.20
2022-09-16T02:19:11.776Z,15.10
2022-09-16T02:21:45.869Z,15.10
2022-09-16T02:24:18.356Z,15.10
2022-09-16T02:26:49.686Z,15.20
2022-09-16T02:29:29.972Z,15.20
2022-09-16T02:32:02.175Z,15.20
2022-09-16T02:34:36.883Z,15.20
2022-09-16T02:37:10.282Z,15.00
2022-09-16T02:39:42.344Z,14.80
2022-09-16T02:42:10.523Z,14.80
2022-09-16T02:44:38.703Z,14.70
2022-09-16T02:47:13.627Z,14.70
2022-09-16T02:49:58.267Z,14.80
2022-09-16T02:52:36.248Z,14.90
2022-09-16T02:55:11.639Z,14.80
2022-09-16T02:57:39.795Z,14.80
2022-09-16T03:00:09.251Z,14.90
2022-09-16T03:02:37.572Z,14.90
2022-09-16T03:05:07.704Z,14.90
2022-09-16T03:07:35.706Z,14.90
2022-09-16T03:10:04.195Z,14.90
2022-09-16T03:12:52.093Z,14.90
2022-09-16T03:15:37.321Z,14.80
2022-09-16T03:18:37.976Z,14.80
2022-09-16T03:21:16.257Z,14.70
2022-09-16T03:23:53.251Z,14.70
2022-09-16T03:26:28.575Z,14.70
2022-09-16T03:29:12.342Z,14.60
2022-09-16T03:31:47.407Z,14.60
2022-09-16T03:34:21.256Z,14.60
2022-09-16T03:36:53.702Z,14.50
2022-09-16T03:39:22.574Z,14.50
2022-09-16T03:41:50.995Z,14.50
2022-09-16T03:44:33.639Z,14.40
2022-09-16T03:47:04.288Z,14.50
2022-09-16T03:49:32.691Z,14.60
2022-09-16T03:52:02.297Z,14.60
2022-09-16T03:54:30.450Z,14.70
2022-09-16T03:57:00.551Z,14.70
2022-09-16T03:59:34.656Z,14.80
2022-09-16T04:02:14.867Z,14.80
2022-09-16T04:04:44.896Z,14.80
2022-09-16T04:07:14.393Z,14.70
2022-09-16T04:09:44.454Z,14.80
2022-09-16T04:12:12.588Z,14.80
2022-09-16T04:14:50.733Z,14.70
2022-09-16T04:17:18.773Z,14.80
2022-09-16T04:19:46.793Z,14.70
2022-09-16T04:22:31.155Z,14.50
2022-09-16T04:25:08.150Z,14.50
2022-09-16T04:27:36.370Z,14.40
2022-09-16T04:30:04.740Z,14.50
2022-09-16T04:32:38.993Z,14.50
2022-09-16T04:35:07.967Z,14.50
2022-09-16T04:37:37.340Z,14.50
2022-09-16T04:40:06.009Z,14.40
2022-09-16T04:42:34.132Z,14.30
2022-09-16T04:45:20.915Z,14.30
2022-09-16T04:47:56.554Z,14.30
2022-09-16T04:50:25.096Z,14.30
2022-09-16T04:52:54.466Z,14.30
2022-09-16T04:55:23.987Z,14.40
2022-09-16T04:57:52.491Z,14.40
2022-09-16T05:00:20.611Z,14.50
2022-09-16T05:02:49.796Z,14.50
2022-09-16T05:05:18.319Z,14.50
2022-09-16T05:07:46.439Z,14.60
2022-09-16T05:10:18.854Z,14.60
2022-09-16T05:12:51.408Z,14.60
2022-09-16T05:15:25.356Z,14.70
2022-09-16T05:17:54.418Z,14.60
2022-09-16T05:20:22.641Z,14.60
2022-09-16T05:22:51.566Z,14.70
2022-09-16T05:25:21.332Z,14.60
2022-09-16T05:27:51.657Z,14.50
2022-09-16T05:30:26.739Z,14.60
2022-09-16T05:32:56.897Z,14.60
2022-09-16T05:35:43.275Z,14.80
2022-09-16T05:38:23.068Z,14.80
2022-09-16T05:40:57.429Z,14.70
2022-09-16T05:43:33.300Z,14.80
2022-09-16T05:46:10.818Z,14.90
2022-09-16T05:48:42.653Z,14.90
2022-09-16T05:51:24.353Z,14.90
2022-09-16T05:54:03.274Z,14.90
2022-09-16T05:56:37.219Z,14.80
2022-09-16T05:59:16.601Z,14.70
2022-09-16T06:01:46.368Z,14.70
2022-09-16T06:04:37.238Z,14.70
2022-09-16T06:07:11.421Z,14.70
2022-09-16T06:09:44.342Z,14.70
2022-09-16T06:12:21.642Z,14.90
2022-09-16T06:15:01.785Z,14.90
2022-09-16T06:17:36.432Z,14.90
2022-09-16T06:20:24.779Z,15.00
2022-09-16T06:23:22.633Z,15.00
2022-09-16T06:26:21.225Z,15.00
2022-09-16T06:29:22.270Z,15.10
2022-09-16T06:31:55.471Z,15.20
2022-09-16T06:34:29.238Z,15.00
2022-09-16T06:37:18.716Z,15.00
2022-09-16T06:40:14.082Z,15.10
2022-09-16T06:42:49.898Z,15.20
2022-09-16T06:45:40.526Z,15.10
2022-09-16T06:48:18.632Z,15.10
2022-09-16T06:50:49.842Z,14.90
2022-09-16T06:53:21.406Z,14.90
2022-09-16T06:55:58.393Z,14.80
2022-09-16T06:58:39.938Z,14.80
2022-09-16T07:01:19.197Z,14.90
2022-09-16T07:03:57.755Z,15.00
2022-09-16T07:09:32.460Z,15.10
2022-09-16T07:12:19.523Z,15.30
2022-09-16T07:14:52.325Z,15.30
2022-09-16T07:17:30.332Z,15.30
2022-09-16T07:20:05.707Z,15.40
2022-09-16T07:22:45.673Z,15.50
2022-09-16T07:25:20.201Z,15.50
2022-09-16T07:27:55.140Z,15.60
2022-09-16T07:30:39.272Z,15.60
2022-09-16T07:33:12.415Z,15.60
2022-09-16T07:35:45.741Z,15.60
2022-09-16T07:38:21.136Z,15.50
2022-09-16T07:40:55.565Z,15.50
2022-09-16T07:43:24.808Z,15.50
2022-09-16T07:46:04.561Z,15.60
2022-09-16T07:48:44.247Z,15.70
2022-09-16T07:51:18.259Z,15.80
2022-09-16T07:53:50.400Z,15.80
2022-09-16T07:56:26.352Z,15.70
2022-09-16T07:58:59.470Z,15.90
2022-09-16T08:01:34.637Z,15.90
2022-09-16T08:04:11.397Z,15.90
2022-09-16T08:06:53.297Z,16.00
2022-09-16T08:09:39.709Z,16.10
2022-09-16T08:12:28.235Z,16.30
2022-09-16T08:15:22.540Z,16.40
2022-09-16T08:17:58.054Z,16.40
2022-09-16T08:20:38.957Z,16.60
2022-09-16T08:23:33.109Z,16.70
2022-09-16T08:26:05.280Z,16.70
2022-09-16T08:28:45.470Z,17.00
2022-09-16T08:31:33.624Z,17.50
2022-09-16T08:34:15.873Z,17.70
2022-09-16T08:36:55.688Z,17.50
2022-09-16T08:39:28.483Z,17.80
2022-09-16T08:42:25.597Z,17.80
2022-09-16T08:45:16.247Z,17.80
2022-09-16T08:48:14.748Z,17.60
2022-09-16T08:50:50.734Z,17.50
2022-09-16T08:53:47.417Z,17.60
2022-09-16T08:56:23.745Z,17.60
2022-09-16T08:58:57.161Z,17.70
2022-09-16T09:01:44.010Z,17.80
2022-09-16T09:04:17.426Z,17.70
2022-09-16T09:07:01.291Z,17.80
2022-09-16T09:09:48.349Z,17.50
2022-09-16T09:12:30.449Z,17.60
2022-09-16T09:15:16.264Z,17.90
2022-09-16T09:17:58.703Z,17.90
2022-09-16T09:20:57.262Z,18.00
2022-09-16T09:23:45.078Z,18.70
2022-09-16T09:26:26.050Z,19.20
2022-09-16T09:29:10.596Z,19.20
2022-09-16T09:31:55.731Z,19.30
2022-09-16T09:34:50.998Z,19.10
2022-09-16T09:37:42.410Z,18.80
2022-09-16T09:40:18.333Z,18.90
2022-09-16T09:42:53.818Z,19.10
2022-09-16T09:45:30.877Z,19.40
2022-09-16T09:48:07.534Z,18.90
2022-09-16T09:50:48.784Z,18.50
2022-09-16T09:53:25.148Z,18.60
2022-09-16T09:56:04.947Z,18.50
2022-09-16T09:58:50.421Z,18.30
2022-09-16T10:01:23.305Z,18.00
2022-09-16T10:03:56.228Z,18.00
2022-09-16T10:06:42.907Z,18.00
2022-09-16T10:09:21.873Z,18.50
2022-09-16T10:12:02.789Z,19.10
2022-09-16T10:14:45.134Z,19.20
2022-09-16T10:17:18.740Z,19.40
2022-09-16T10:20:04.319Z,19.90
2022-09-16T10:22:41.095Z,20.60
2022-09-16T10:25:32.060Z,20.20
2022-09-16T10:28:07.558Z,18.30
2022-09-16T10:30:51.304Z,17.90
2022-09-16T10:33:34.444Z,17.60
2022-09-16T10:36:11.501Z,18.00
2022-09-16T10:38:43.065Z,17.90
2022-09-16T10:41:26.177Z,17.70
2022-09-16T10:44:01.451Z,17.40
2022-09-16T10:46:34.674Z,16.70
2022-09-16T10:49:28.587Z,16.50
2022-09-16T10:52:19.568Z,16.40
2022-09-16T10:55:00.498Z,16.40
2022-09-16T10:57:44.811Z,16.40
2022-09-16T11:00:21.093Z,16.40
2022-09-16T11:03:45.399Z,16.20
2022-09-16T11:06:35.978Z,16.20
2022-09-16T11:09:19.359Z,16.20
2022-09-16T11:12:11.128Z,16.10
2022-09-16T11:14:50.485Z,16.10
2022-09-16T11:17:43.320Z,15.90
2022-09-16T11:20:44.155Z,15.90
2022-09-16T11:23:30.233Z,15.90
2022-09-16T11:26:13.172Z,15.90
2022-09-16T11:29:00.923Z,16.00
2022-09-16T11:31:48.493Z,16.10
2022-09-16T11:34:36.970Z,15.90
2022-09-16T11:37:21.517Z,15.70
2022-09-16T11:40:08.957Z,15.60
2022-09-16T11:42:59.225Z,15.40
2022-09-16T11:45:53.859Z,15.30
2022-09-16T11:49:19.395Z,15.00
2022-09-16T11:52:16.088Z,14.90
2022-09-16T11:55:04.651Z,14.80
2022-09-16T11:57:57.297Z,14.80
2022-09-16T12:00:31.862Z,14.60
2022-09-16T12:03:08.921Z,14.60
2022-09-16T12:05:45.859Z,14.70
2022-09-16T12:08:32.494Z,14.80
2022-09-16T12:11:05.044Z,14.80
2022-09-16T12:13:42.848Z,14.70
2022-09-16T12:16:32.632Z,14.60
2022-09-16T12:19:22.411Z,14.70
2022-09-16T12:21:58.341Z,14.90
2022-09-16T12:24:46.126Z,15.10
2022-09-16T12:27:24.918Z,14.90
2022-09-16T12:29:59.999Z,14.80
2022-09-16T12:32:39.832Z,14.80
2022-09-16T12:35:23.298Z,14.80
2022-09-16T12:38:12.423Z,14.70
2022-09-16T12:41:11.747Z,14.60
2022-09-16T12:44:02.242Z,14.70
2022-09-16T12:46:57.064Z,14.60
2022-09-16T12:49:55.822Z,14.70
2022-09-16T12:52:44.363Z,14.70
2022-09-16T12:56:00.624Z,14.70
2022-09-16T12:58:56.300Z,14.70
2022-09-16T13:01:36.585Z,14.70
2022-09-16T13:04:19.916Z,14.70
2022-09-16T13:06:56.432Z,14.80
2022-09-16T13:09:29.172Z,14.70
2022-09-16T13:15:00.191Z,14.70
2022-09-16T13:17:34.479Z,14.70
2022-09-16T13:20:14.148Z,14.70
2022-09-16T13:23:09.042Z,14.90
2022-09-16T13:26:03.040Z,15.00
2022-09-16T13:28:47.937Z,15.00
2022-09-16T13:31:34.652Z,15.00
2022-09-16T13:34:16.182Z,15.00
2022-09-16T13:36:50.614Z,15.10
2022-09-16T13:39:30.387Z,15.20
2022-09-16T13:41:58.925Z,15.30
2022-09-16T13:44:40.808Z,15.40
2022-09-16T13:47:17.511Z,15.50
2022-09-16T13:49:50.009Z,15.30
2022-09-16T13:52:25.548Z,15.20
2022-09-16T13:55:11.625Z,15.30
2022-09-16T13:57:50.190Z,15.50
2022-09-16T14:00:23.688Z,15.50
2022-09-16T14:03:08.487Z,15.40
2022-09-16T14:06:12.168Z,15.60
2022-09-16T14:08:47.131Z,15.70
2022-09-16T14:11:21.398Z,15.70
2022-09-16T14:14:00.810Z,15.60
2022-09-16T14:16:35.964Z,15.40
2022-09-16T14:19:09.002Z,15.40
2022-09-16T14:21:39.242Z,15.40
2022-09-16T14:24:18.154Z,15.40
2022-09-16T14:26:53.449Z,15.30
2022-09-16T14:29:22.154Z,15.40
2022-09-16T14:31:52.252Z,15.30
2022-09-16T14:34:28.619Z,15.30
2022-09-16T14:36:56.878Z,15.20
2022-09-16T14:39:27.770Z,15.00
2022-09-16T14:41:58.704Z,14.90
2022-09-16T14:44:35.036Z,14.90
2022-09-16T14:47:09.555Z,14.90
2022-09-16T14:49:45.280Z,15.00
2022-09-16T14:52:20.647Z,15.30
2022-09-16T14:54:52.605Z,15.40
2022-09-16T14:57:23.068Z,15.40
2022-09-16T14:59:53.359Z,15.40
2022-09-16T15:02:29.841Z,15.30
2022-09-16T15:05:02.792Z,15.30
2022-09-16T15:07:56.291Z,15.60
2022-09-16T15:10:35.858Z,15.70
2022-09-16T15:13:22.753Z,15.70
2022-09-16T15:15:53.554Z,15.60
2022-09-16T15:18:26.937Z,15.40
2022-09-16T15:21:05.832Z,15.20
2022-09-16T15:23:34.730Z,15.20
2022-09-16T15:26:20.508Z,15.10
2022-09-16T15:28:57.674Z,15.00
2022-09-16T15:31:34.720Z,15.00
2022-09-16T15:34:05.670Z,15.10
2022-09-16T15:36:40.907Z,15.00
2022-09-16T15:39:29.882Z,14.90
2022-09-16T15:42:12.190Z,14.90
2022-09-16T15:44:47.586Z,14.80
2022-09-16T15:47:21.671Z,14.80
2022-09-16T15:50:10.221Z,14.70
2022-09-16T15:52:55.484Z,14.70
2022-09-16T15:55:32.012Z,14.60
2022-09-16T15:58:04.972Z,14.60
2022-09-16T16:00:57.718Z,14.50
2022-09-16T16:03:25.931Z,14.60
2022-09-16T16:05:55.396Z,14.60
2022-09-16T16:08:44.410Z,14.50
2022-09-16T16:11:14.096Z,14.40
2022-09-16T16:13:43.291Z,14.50
2022-09-16T16:16:13.024Z,14.40
2022-09-16T16:18:42.537Z,14.40
2022-09-16T16:21:12.107Z,14.30
2022-09-16T16:23:43.321Z,14.30
2022-09-16T16:26:12.578Z,14.40
2022-09-16T16:28:40.564Z,14.40
2022-09-16T16:31:10.347Z,14.30
2022-09-16T16:33:41.412Z,14.30
2022-09-16T16:36:12.610Z,14.20
2022-09-16T16:38:41.980Z,14.20
2022-09-16T16:41:12.099Z,14.20
2022-09-16T16:43:40.291Z,14.20
2022-09-16T16:46:08.859Z,14.20
2022-09-16T16:48:38.109Z,14.20
2022-09-16T16:51:08.778Z,14.30
2022-09-16T16:53:37.519Z,14.30
2022-09-16T16:56:14.458Z,14.20
2022-09-16T16:58:44.070Z,14.00
2022-09-16T17:01:13.964Z,14.00
2022-09-16T17:03:43.148Z,13.90
2022-09-16T17:06:11.606Z,13.90
2022-09-16T17:08:40.128Z,13.90
2022-09-16T17:11:12.000Z,13.80
2022-09-16T17:13:41.288Z,13.80
2022-09-16T17:16:10.388Z,13.80
2022-09-16T17:18:40.395Z,13.80
2022-09-16T17:21:10.714Z,13.80
2022-09-16T17:23:39.228Z,13.70
2022-09-16T17:26:10.735Z,13.70
2022-09-16T17:28:40.295Z,13.60
2022-09-16T17:31:11.256Z,13.50
2022-09-16T17:33:48.009Z,13.50
2022-09-16T17:36:18.409Z,13.40
2022-09-16T17:38:46.444Z,13.40
2022-09-16T17:41:26.924Z,13.40
2022-09-16T17:43:55.602Z,13.40
2022-09-16T17:46:28.777Z,13.40
2022-09-16T17:49:01.030Z,13.40
2022-09-16T17:51:29.500Z,13.30
2022-09-16T17:53:59.023Z,13.30
2022-09-16T17:56:28.570Z,13.30
2022-09-16T17:58:58.989Z,13.20
2022-09-16T18:01:34.483Z,13.20
2022-09-16T18:04:03.333Z,13.30
2022-09-16T18:06:35.624Z,13.20
2022-09-16T18:09:07.348Z,13.20
2022-09-16T18:11:38.652Z,13.00
2022-09-16T18:14:08.586Z,13.00
2022-09-16T18:16:39.124Z,13.10
2022-09-16T18:19:14.088Z,13.00
2022-09-16T18:21:42.243Z,12.80
2022-09-16T18:24:13.550Z,12.70
2022-09-16T18:26:43.195Z,12.80
2022-09-16T18:29:17.453Z,12.80
2022-09-16T18:31:47.513Z,12.80
2022-09-16T18:34:17.084Z,12.80
2022-09-16T18:36:46.412Z,12.70
2022-09-16T18:39:16.731Z,12.70
2022-09-16T18:41:47.548Z,12.70
2022-09-16T18:44:19.567Z,12.60
2022-09-16T18:46:54.287Z,12.60
2022-09-16T18:49:24.053Z,12.60
2022-09-16T18:51:53.251Z,12.60
2022-09-16T18:54:29.767Z,12.50
2022-09-16T18:57:07.231Z,12.50
2022-09-16T18:59:36.686Z,12.50
2022-09-16T19:02:05.646Z,12.50
2022-09-16T19:04:39.595Z,12.40
2022-09-16T19:07:09.078Z,12.50
2022-09-16T19:09:51.093Z,12.50
2022-09-16T19:12:22.528Z,12.50
2022-09-16T19:15:01.864Z,12.40
2022-09-16T19:17:30.023Z,12.40
2022-09-16T19:20:00.274Z,12.40
2022-09-16T19:22:28.393Z,12.40
2022-09-16T19:24:56.499Z,12.30
2022-09-16T19:27:26.349Z,12.30
2022-09-16T19:29:54.394Z,12.30
2022-09-16T19:32:22.633Z,12.20
2022-09-16T19:34:50.991Z,12.20
2022-09-16T19:37:22.091Z,12.30
2022-09-16T19:39:51.210Z,12.30
2022-09-16T19:42:20.379Z,12.40
2022-09-16T19:44:49.863Z,12.30
2022-09-16T19:47:17.857Z,12.30
2022-09-16T19:49:45.853Z,12.40
2022-09-16T19:52:14.955Z,12.40
2022-09-16T19:54:43.154Z,12.40
2022-09-16T19:57:11.278Z,12.40
2022-09-16T19:59:39.277Z,12.50
2022-09-16T20:02:11.200Z,12.50
2022-09-16T20:04:39.509Z,12.50
2022-09-16T20:07:12.687Z,12.60
2022-09-16T20:09:41.852Z,12.60
2022-09-16T20:12:11.942Z,12.60
2022-09-16T20:14:41.623Z,12.60
2022-09-16T20:17:11.049Z,12.70
2022-09-16T20:19:39.208Z,12.60
2022-09-16T20:22:07.221Z,12.70
2022-09-16T20:24:35.591Z,12.70
2022-09-16T20:27:10.464Z,12.60
2022-09-16T20:29:38.684Z,12.60
2022-09-16T20:32:07.080Z,12.60
2022-09-16T20:34:38.268Z,12.60
2022-09-16T20:37:09.622Z,12.60
2022-09-16T20:39:48.984Z,12.60
2022-09-16T20:42:17.150Z,12.60
2022-09-16T20:44:48.867Z,12.60
2022-09-16T20:47:18.733Z,12.60
2022-09-16T20:49:49.271Z,12.50
2022-09-16T20:52:17.339Z,12.50
2022-09-16T20:54:45.709Z,12.40
2022-09-16T20:57:14.815Z,12.40
2022-09-16T20:59:42.819Z,12.40
2022-09-16T21:02:12.161Z,12.30
2022-09-16T21:04:42.393Z,12.30
2022-09-16T21:07:22.094Z,12.30
2022-09-16T21:09:52.419Z,12.30
2022-09-16T21:12:27.681Z,12.30
2022-09-16T21:14:57.667Z,12.30
2022-09-16T21:17:26.818Z,12.30
2022-09-16T21:19:57.102Z,12.30
2022-09-16T21:22:28.711Z,12.20
2022-09-16T21:25:10.229Z,12.20
2022-09-16T21:27:38.694Z,12.20
2022-09-16T21:30:09.311Z,12.20
2022-09-16T21:32:37.338Z,12.10
2022-09-16T21:35:07.422Z,12.10
2022-09-16T21:37:38.927Z,12.10
2022-09-16T21:40:09.739Z,12.10
2022-09-16T21:42:37.879Z,12.10
2022-09-16T21:45:07.446Z,12.10
2022-09-16T21:47:37.457Z,12.10
2022-09-16T21:50:08.367Z,12.00
2022-09-16T21:52:39.219Z,12.00
2022-09-16T21:55:12.450Z,12.00
2022-09-16T21:57:40.499Z,12.00
2022-09-16T22:00:10.323Z,12.00
2022-09-16T22:02:39.465Z,12.00
2022-09-16T22:05:16.806Z,12.00
2022-09-16T22:07:46.365Z,12.00
2022-09-16T22:10:14.439Z,12.00
2022-09-16T22:12:42.496Z,12.00
2022-09-16T22:15:12.803Z,11.90
2022-09-16T22:17:43.291Z,11.90
2022-09-16T22:20:13.165Z,11.90
2022-09-16T22:22:41.467Z,12.00
2022-09-16T22:25:11.316Z,12.00
2022-09-16T22:27:39.348Z,11.90
2022-09-16T22:30:08.379Z,11.90
2022-09-16T22:32:40.917Z,11.80
2022-09-16T22:35:10.291Z,11.90
2022-09-16T22:37:38.803Z,11.90
2022-09-16T22:40:07.923Z,11.90
2022-09-16T22:42:37.591Z,11.90
2022-09-16T22:45:07.596Z,11.80
2022-09-16T22:47:35.754Z,11.80
2022-09-16T22:50:04.318Z,11.80
2022-09-16T22:52:39.365Z,11.70
2022-09-16T22:55:10.873Z,11.60
2022-09-16T22:58:00.339Z,11.50
2022-09-16T23:00:30.689Z,11.50
2022-09-16T23:03:00.738Z,11.40
2022-09-16T23:05:28.919Z,11.30
2022-09-16T23:07:56.915Z,11.20
2022-09-16T23:10:30.120Z,11.20
2022-09-16T23:13:04.296Z,11.10
2022-09-16T23:15:34.596Z,11.10
2022-09-16T23:18:02.591Z,11.10
2022-09-16T23:20:38.918Z,11.10
2022-09-16T23:23:16.215Z,11.20
2022-09-16T23:25:44.950Z,11.10
2022-09-16T23:28:14.296Z,11.10
2022-09-16T23:30:52.523Z,11.10
2022-09-16T23:33:20.596Z,11.10
2022-09-16T23:35:51.785Z,11.10
2022-09-16T23:38:28.037Z,11.10
2022-09-16T23:40:56.527Z,11.00
2022-09-16T23:43:27.102Z,11.00
2022-09-16T23:46:00.778Z,11.00
2022-09-16T23:48:29.989Z,10.90
2022-09-16T23:50:58.818Z,10.90
2022-09-16T23:53:27.505Z,10.90
2022-09-16T23:55:55.931Z,10.90
2022-09-16T23:58:24.134Z,10.90
